Lochgilphead, United Kingdom
Current Conditions -  °F | °C
As of 10:20 AM on Wednesday 22 Oct 2014 (Local Time) from EGPI Reporting Station
Light Rain Light Rain  
Wind Chill: 52°   Ceiling: 1000
Heat Index: 52°   Visibility: 2.2mi
Dew Point: 50°   Wind: 20mph
Humidity: 94%   Direction: 240°WSW
Pressure: 30.06"   Gusts: NA
Location:  56.04°N, 5.43°W
Report Text: EGPI 220920Z AUTO 24017KT 3600 -RA BKN010/// 11/10 Q1018
Loading
Personal Weather Stations






























Interactive Weather Map
Tropical Storm Tracking
New forecast layout! Learn more

10-Day Weather Forecast

Advertisements
Track Severe Weather on mobile